Time;durP1;ratioP1;P1;durP2;ratioP2;P2;SDS_P1;SDS_P2;PMS_P1;PMS_P2;Temp;Humidity;BMP_temperature;BMP_pressure;BME280_temperature;BME280_humidity;BME280_pressure;Samples;Min_cycle;Max_cycle;Signal;HPM_P1;HPM_P2
2022/03/05 00:00:12;;;;;;;14.80;9.27;;;;;;;-1.98;61.23;95681.44;4940000;28;20599;-81
2022/03/05 00:02:38;;;;;;;16.63;10.17;;;;;;;-1.96;60.99;95684.72;4954940;28;20720;-80
2022/03/05 00:05:03;;;;;;;14.47;9.40;;;;;;;-2.03;61.27;95679.94;4955781;28;20189;-81
2022/03/05 00:07:29;;;;;;;16.60;10.70;;;;;;;-2.08;61.13;95683.56;4955749;28;20188;-81
2022/03/05 00:09:54;;;;;;;17.30;10.40;;;;;;;-2.06;61.15;95680.06;4955700;28;20258;-80
2022/03/05 00:12:19;;;;;;;19.33;10.60;;;;;;;-2.09;61.06;95677.66;4955648;28;20260;-81
2022/03/05 00:14:44;;;;;;;16.00;10.03;;;;;;;-2.09;60.97;95681.91;4973408;28;20205;-81
2022/03/05 00:17:10;;;;;;;16.10;8.90;;;;;;;-2.13;60.52;95683.75;4939869;28;20216;-80
2022/03/05 00:19:35;;;;;;;16.23;9.47;;;;;;;-2.12;61.02;95682.91;4956313;28;20230;-81
2022/03/05 00:22:02;;;;;;;16.13;9.67;;;;;;;-2.23;61.22;95676.59;4940511;28;20697;-81
2022/03/05 00:24:28;;;;;;;18.07;9.90;;;;;;;-2.23;61.16;95679.16;4940594;28;20189;-80
2022/03/05 00:26:53;;;;;;;14.70;9.63;;;;;;;-2.10;60.84;95681.09;4956534;28;20175;-80
2022/03/05 00:29:19;;;;;;;16.43;9.73;;;;;;;-2.19;61.25;95678.13;4956035;28;20184;-82
2022/03/05 00:31:44;;;;;;;14.43;9.73;;;;;;;-2.22;61.50;95674.00;4955730;28;20652;-81
2022/03/05 00:34:09;;;;;;;17.57;10.40;;;;;;;-2.23;61.74;95681.69;4954774;28;20196;-81
2022/03/05 00:36:35;;;;;;;17.13;9.83;;;;;;;-2.27;61.86;95673.38;4944848;28;20619;-82
2022/03/05 00:39:01;;;;;;;17.03;8.87;;;;;;;-2.32;61.30;95676.13;4969184;28;20209;-79
2022/03/05 00:41:26;;;;;;;16.43;9.40;;;;;;;-2.34;62.02;95677.09;4959636;28;20802;-82
2022/03/05 00:43:51;;;;;;;18.37;9.73;;;;;;;-2.41;61.96;95676.50;4959530;28;20196;-80
2022/03/05 00:46:16;;;;;;;17.67;8.87;;;;;;;-2.26;60.98;95680.13;4959153;28;20182;-81
2022/03/05 00:48:42;;;;;;;16.43;9.93;;;;;;;-2.33;61.58;95682.09;4959226;28;20642;-81
2022/03/05 00:51:07;;;;;;;17.70;10.10;;;;;;;-2.29;60.94;95678.53;4942498;28;20188;-82
2022/03/05 00:53:32;;;;;;;15.80;10.30;;;;;;;-2.28;60.40;95681.91;4942926;28;20200;-79
2022/03/05 00:55:58;;;;;;;16.33;9.43;;;;;;;-2.30;60.44;95683.66;4976238;28;20216;-79
2022/03/05 00:58:23;;;;;;;14.10;8.43;;;;;;;-2.30;61.03;95686.22;4959108;28;20181;-81
2022/03/05 01:00:48;;;;;;;17.47;10.43;;;;;;;-2.36;60.69;95689.03;4958751;28;20211;-80
2022/03/05 01:03:14;;;;;;;15.00;10.13;;;;;;;-2.36;60.29;95691.59;4942549;28;20216;-80
2022/03/05 01:05:39;;;;;;;18.53;10.00;;;;;;;-2.44;60.54;95688.53;4958912;28;20181;-79
2022/03/05 01:08:05;;;;;;;14.43;9.20;;;;;;;-2.47;61.24;95688.66;4958947;28;20174;-80
2022/03/05 01:10:30;;;;;;;16.60;10.00;;;;;;;-2.54;60.95;95688.13;4958740;28;20179;-80
2022/03/05 01:12:55;;;;;;;17.60;10.00;;;;;;;-2.47;61.17;95686.97;4975491;28;20354;-81
2022/03/05 01:15:21;;;;;;;17.63;9.67;;;;;;;-2.52;61.37;95680.41;4942831;28;20603;-80
2022/03/05 01:17:46;;;;;;;15.07;9.60;;;;;;;-2.52;60.93;95678.69;4941875;28;20193;-81
2022/03/05 01:20:11;;;;;;;16.30;9.33;;;;;;;-2.55;60.97;95678.84;4939933;29;20598;-79
2022/03/05 01:22:37;;;;;;;15.47;8.90;;;;;;;-2.57;60.96;95676.34;4939479;29;20295;-79
2022/03/05 01:25:03;;;;;;;15.53;9.67;;;;;;;-2.59;61.23;95674.75;4963644;28;20195;-81
2022/03/05 01:27:28;;;;;;;19.03;10.27;;;;;;;-2.64;61.10;95674.16;4924306;29;20236;-81
2022/03/05 01:29:54;;;;;;;17.10;8.80;;;;;;;-2.52;61.36;95665.16;4940556;29;20181;-80
2022/03/05 01:32:19;;;;;;;15.43;9.47;;;;;;;-2.54;60.50;95667.78;4954055;29;20205;-80
2022/03/05 01:34:44;;;;;;;15.87;9.33;;;;;;;-2.47;60.60;95668.31;4966057;29;20178;-81
2022/03/05 01:37:10;;;;;;;14.67;9.47;;;;;;;-2.49;60.62;95665.03;4952667;28;20193;-82
2022/03/05 01:39:35;;;;;;;14.17;8.63;;;;;;;-2.42;60.50;95667.22;4979394;28;20273;-82
2022/03/05 01:42:01;;;;;;;15.37;8.87;;;;;;;-2.44;59.81;95665.66;4955865;29;20181;-79
2022/03/05 01:44:27;;;;;;;15.00;8.60;;;;;;;-2.44;59.71;95663.94;4941091;29;20196;-78
2022/03/05 01:46:52;;;;;;;13.53;9.33;;;;;;;-2.48;60.00;95661.59;4941138;29;20205;-78
2022/03/05 01:49:17;;;;;;;15.43;8.77;;;;;;;-2.55;59.88;95663.59;4933920;29;20214;-78
2022/03/05 01:51:43;;;;;;;15.70;9.10;;;;;;;-2.51;60.24;95660.00;4937060;29;20585;-79
2022/03/05 01:54:09;;;;;;;16.93;8.73;;;;;;;-2.54;60.22;95666.94;4937902;29;20205;-80
2022/03/05 01:56:35;;;;;;;14.37;8.93;;;;;;;-2.62;60.11;95660.47;4952563;29;20189;-80
2022/03/05 01:59:00;;;;;;;14.60;8.63;;;;;;;-2.61;59.38;95661.28;4952299;29;20205;-80
2022/03/05 02:01:27;;;;;;;13.53;8.53;;;;;;;-2.44;59.25;95663.13;4951904;29;20233;-79
2022/03/05 02:03:53;;;;;;;14.50;8.07;;;;;;;-2.44;58.81;95661.41;4953163;29;20604;-80
2022/03/05 02:06:19;;;;;;;14.20;8.20;;;;;;;-2.54;59.02;95672.03;4952992;29;20193;-81
2022/03/05 02:08:44;;;;;;;13.40;8.60;;;;;;;-2.63;58.82;95665.63;4937536;29;20276;-79
2022/03/05 02:11:10;;;;;;;13.53;8.33;;;;;;;-2.63;58.93;95661.38;4952652;29;20229;-79
2022/03/05 02:13:36;;;;;;;11.67;7.63;;;;;;;-2.65;59.03;95665.69;4946529;29;20206;-81
2022/03/05 02:16:02;;;;;;;13.83;7.53;;;;;;;-2.71;59.42;95668.50;4969705;29;20181;-82
2022/03/05 02:18:27;;;;;;;13.50;7.83;;;;;;;-2.66;59.42;95664.03;4970943;29;20288;-80
2022/03/05 02:20:53;;;;;;;11.73;8.20;;;;;;;-2.76;59.41;95657.69;4966243;29;20237;-80
2022/03/05 02:23:18;;;;;;;13.63;7.57;;;;;;;-2.77;59.14;95662.84;4952086;29;20208;-80
2022/03/05 02:25:54;;;;;;;13.67;7.40;;;;;;;-2.78;59.24;95658.63;4969043;29;20541;-79
2022/03/05 02:28:21;;;;;;;13.67;8.40;;;;;;;-2.85;59.28;95658.88;4942186;29;20264;-80
2022/03/05 02:30:46;;;;;;;14.40;7.70;;;;;;;-2.80;59.14;95661.25;4939683;29;20173;-80
2022/03/05 02:33:11;;;;;;;14.03;7.07;;;;;;;-2.85;59.66;95663.16;4948149;29;20635;-79
2022/03/05 02:35:37;;;;;;;13.70;7.40;;;;;;;-2.71;59.24;95660.88;4938835;29;20606;-79
2022/03/05 02:38:02;;;;;;;10.80;6.70;;;;;;;-2.80;58.84;95656.16;4938492;29;20177;-79
2022/03/05 02:40:28;;;;;;;10.03;7.13;;;;;;;-2.92;60.04;95649.03;4954537;29;20714;-80
2022/03/05 02:42:53;;;;;;;10.63;6.83;;;;;;;-3.00;59.64;95646.84;4955518;29;20599;-80
2022/03/05 02:45:18;;;;;;;11.27;7.33;;;;;;;-2.93;59.53;95653.28;4970961;28;20188;-81
2022/03/05 02:47:43;;;;;;;12.67;6.90;;;;;;;-2.89;59.20;95656.56;4954314;29;20221;-81
2022/03/05 02:50:09;;;;;;;14.67;7.80;;;;;;;-2.89;59.23;95654.84;4970662;28;20206;-81
2022/03/05 02:52:34;;;;;;;10.77;7.33;;;;;;;-2.88;59.23;95646.31;4955041;29;20213;-81
2022/03/05 02:54:59;;;;;;;12.47;7.30;;;;;;;-2.99;59.44;95645.94;4938444;29;20220;-80
2022/03/05 02:57:25;;;;;;;10.37;6.80;;;;;;;-2.98;59.23;95655.22;4954883;29;20182;-81
2022/03/05 02:59:50;;;;;;;10.53;7.50;;;;;;;-3.03;59.57;95648.66;4970521;28;20242;-80
2022/03/05 03:02:16;;;;;;;11.63;7.33;;;;;;;-2.99;59.31;95655.28;4953104;28;20196;-80
2022/03/05 03:04:42;;;;;;;11.47;7.27;;;;;;;-2.94;59.85;95650.81;4937880;29;20273;-79
2022/03/05 03:07:07;;;;;;;12.50;7.77;;;;;;;-3.06;59.19;95648.81;4970281;28;20215;-79
2022/03/05 03:09:32;;;;;;;10.53;6.70;;;;;;;-3.01;59.61;95654.50;4969943;28;20170;-80
2022/03/05 03:11:58;;;;;;;13.13;7.30;;;;;;;-3.14;59.76;95657.56;4954394;29;20211;-80
2022/03/05 03:14:23;;;;;;;13.20;6.67;;;;;;;-3.09;60.12;95656.53;4969906;28;20177;-80
2022/03/05 03:16:48;;;;;;;11.13;6.87;;;;;;;-3.21;60.16;95663.78;4953799;29;20192;-79
2022/03/05 03:19:14;;;;;;;12.00;6.40;;;;;;;-3.19;60.03;95667.06;4964416;29;20209;-78
2022/03/05 03:21:39;;;;;;;10.30;6.40;;;;;;;-3.29;60.34;95658.16;4970582;29;20535;-81
2022/03/05 03:24:04;;;;;;;12.27;6.87;;;;;;;-3.25;59.69;95663.97;4969267;29;20201;-78
2022/03/05 03:26:30;;;;;;;10.43;6.40;;;;;;;-3.35;59.78;95657.63;4953176;29;20181;-78
2022/03/05 03:28:56;;;;;;;11.63;7.13;;;;;;;-3.27;59.78;95665.72;4985352;28;20209;-79
2022/03/05 03:31:21;;;;;;;10.10;6.50;;;;;;;-3.30;60.74;95661.59;4985996;28;20223;-80
2022/03/05 03:33:46;;;;;;;10.97;6.97;;;;;;;-3.29;59.90;95663.25;4984888;28;20201;-80
2022/03/05 03:36:12;;;;;;;12.87;7.07;;;;;;;-3.32;60.06;95663.38;4957023;29;20193;-79
2022/03/05 03:38:37;;;;;;;13.90;6.90;;;;;;;-3.35;60.20;95663.50;4922444;29;20565;-79
2022/03/05 03:41:02;;;;;;;14.93;6.90;;;;;;;-3.38;60.26;95653.47;4953233;29;20294;-79
2022/03/05 03:43:28;;;;;;;12.40;7.33;;;;;;;-3.41;60.24;95653.59;4921280;29;20205;-79
2022/03/05 03:45:53;;;;;;;8.90;6.50;;;;;;;-3.46;60.44;95660.56;4975362;28;20178;-80
2022/03/05 03:48:18;;;;;;;11.90;6.90;;;;;;;-3.48;60.48;95660.63;4957960;29;20686;-79
2022/03/05 03:50:43;;;;;;;11.83;7.03;;;;;;;-3.40;60.26;95665.41;4973587;29;20181;-80
2022/03/05 03:53:09;;;;;;;11.13;6.83;;;;;;;-3.48;59.95;95663.16;4973022;29;20216;-80
2022/03/05 03:55:35;;;;;;;10.97;7.03;;;;;;;-3.55;60.52;95663.44;4972993;29;20169;-79
2022/03/05 03:58:01;;;;;;;11.83;6.87;;;;;;;-3.54;60.41;95667.63;4972442;29;20239;-80
2022/03/05 04:00:27;;;;;;;12.17;6.93;;;;;;;-3.50;60.71;95670.00;4955239;29;20208;-79
2022/03/05 04:02:52;;;;;;;11.47;7.03;;;;;;;-3.58;60.79;95669.47;4954704;29;20201;-79
2022/03/05 04:05:17;;;;;;;12.40;7.23;;;;;;;-3.56;60.58;95664.34;4976677;28;20201;-79
2022/03/05 04:10:27;;;;;;;12.27;7.20;;;;;;;-3.51;60.96;95663.28;4967264;28;20188;-80
2022/03/05 04:12:53;;;;;;;12.50;7.23;;;;;;;-3.54;61.14;95662.56;4970167;28;20197;-80
2022/03/05 04:15:19;;;;;;;9.67;7.13;;;;;;;-3.58;61.07;95663.59;4972155;28;20212;-79
2022/03/05 04:17:45;;;;;;;12.90;7.33;;;;;;;-3.59;61.64;95669.56;4940237;29;20185;-80
2022/03/05 04:20:11;;;;;;;11.93;7.20;;;;;;;-3.53;61.92;95671.84;4940406;29;20217;-80
2022/03/05 04:22:36;;;;;;;12.87;7.77;;;;;;;-3.61;62.11;95679.78;4940078;29;20634;-80
2022/03/05 04:25:02;;;;;;;12.53;7.57;;;;;;;-3.63;62.56;95673.06;4940860;29;20224;-80
2022/03/05 04:27:28;;;;;;;11.97;7.20;;;;;;;-3.71;62.35;95671.69;4957794;29;20650;-80
2022/03/05 04:29:53;;;;;;;10.43;6.93;;;;;;;-3.68;62.27;95677.53;4972552;28;20173;-80
2022/03/05 04:32:18;;;;;;;12.87;7.40;;;;;;;-3.76;62.58;95671.03;4970377;28;20197;-80
2022/03/05 04:34:44;;;;;;;11.83;7.23;;;;;;;-3.75;62.72;95682.81;4972811;28;20185;-79
2022/03/05 04:37:09;;;;;;;12.00;7.17;;;;;;;-3.76;63.08;95682.88;4972891;28;20244;-80
2022/03/05 04:39:34;;;;;;;10.93;6.87;;;;;;;-3.80;63.00;95682.19;4972210;28;20221;-80
2022/03/05 04:42:00;;;;;;;16.17;8.17;;;;;;;-3.87;63.08;95683.28;4955696;29;20216;-80
2022/03/05 04:44:25;;;;;;;13.60;7.53;;;;;;;-3.92;63.27;95692.78;4940053;29;20185;-80
2022/03/05 04:46:50;;;;;;;9.93;6.63;;;;;;;-3.91;63.54;95689.34;4957292;29;20169;-80
2022/03/05 04:49:16;;;;;;;13.47;6.33;;;;;;;-3.95;63.16;95681.94;4956056;29;20545;-80
2022/03/05 04:51:41;;;;;;;12.23;7.03;;;;;;;-3.95;63.15;95689.53;4971571;28;20200;-80
2022/03/05 04:54:06;;;;;;;11.67;7.20;;;;;;;-3.96;63.10;95686.19;4957379;29;20689;-80
2022/03/05 04:56:32;;;;;;;11.97;7.57;;;;;;;-4.00;63.36;95682.09;4956189;29;20181;-80
2022/03/05 04:58:57;;;;;;;10.93;7.30;;;;;;;-4.00;63.40;95685.44;4956947;29;20267;-80
2022/03/05 05:01:22;;;;;;;13.80;7.53;;;;;;;-4.02;64.08;95683.84;4956438;29;20176;-80
2022/03/05 05:03:48;;;;;;;12.80;7.07;;;;;;;-4.05;63.44;95687.34;4972173;28;20225;-80
2022/03/05 05:06:13;;;;;;;13.03;7.67;;;;;;;-4.09;63.73;95687.50;4957086;29;20227;-80
2022/03/05 05:08:39;;;;;;;12.50;7.23;;;;;;;-4.00;63.90;95690.53;4972029;28;20201;-81
2022/03/05 05:11:04;;;;;;;11.17;6.93;;;;;;;-3.99;64.30;95696.41;4939552;29;20173;-81
2022/03/05 05:13:30;;;;;;;12.47;6.80;;;;;;;-4.09;64.20;95690.84;4939069;29;20201;-80
2022/03/05 05:15:56;;;;;;;14.57;7.37;;;;;;;-4.05;63.88;95691.59;4955560;29;20201;-80
2022/03/05 05:18:21;;;;;;;13.77;7.07;;;;;;;-4.07;64.21;95693.34;4955707;28;20181;-81
2022/03/05 05:20:47;;;;;;;12.47;7.20;;;;;;;-4.10;64.79;95688.38;4971378;28;20197;-80
2022/03/05 05:23:12;;;;;;;11.23;7.30;;;;;;;-4.12;64.63;95695.22;4954792;28;20204;-79
2022/03/05 05:25:37;;;;;;;11.10;7.27;;;;;;;-4.11;65.07;95697.69;4970866;28;20188;-79
2022/03/05 05:28:03;;;;;;;13.93;7.93;;;;;;;-4.16;64.76;95697.03;4938790;29;20181;-79
2022/03/05 05:30:28;;;;;;;12.00;7.43;;;;;;;-4.16;64.80;95697.03;4971086;28;20248;-79
2022/03/05 05:32:53;;;;;;;12.00;7.50;;;;;;;-4.03;64.54;95698.25;4968810;28;20283;-78
2022/03/05 05:35:19;;;;;;;13.03;7.30;;;;;;;-4.10;64.71;95706.13;4971507;28;20177;-79
2022/03/05 05:37:44;;;;;;;13.10;7.80;;;;;;;-4.05;65.26;95701.75;4939712;29;20189;-80
2022/03/05 05:40:10;;;;;;;13.93;8.03;;;;;;;-4.03;64.82;95700.78;4956605;29;20221;-79
2022/03/05 05:42:35;;;;;;;13.03;7.60;;;;;;;-4.08;65.35;95706.91;4970995;28;20653;-80
2022/03/05 05:45:00;;;;;;;12.10;7.43;;;;;;;-4.07;65.00;95704.31;4971882;28;20546;-80
2022/03/05 05:47:25;;;;;;;12.97;7.80;;;;;;;-4.14;64.90;95709.69;4971873;28;20224;-80
2022/03/05 05:49:51;;;;;;;12.80;7.03;;;;;;;-4.21;65.46;95715.84;4939394;29;20602;-80
2022/03/05 05:52:18;;;;;;;11.53;6.87;;;;;;;-4.18;65.85;95716.56;4954351;29;20198;-80
2022/03/05 05:54:43;;;;;;;12.00;7.17;;;;;;;-4.17;65.80;95717.38;4955220;29;20174;-80
2022/03/05 05:57:08;;;;;;;14.67;8.40;;;;;;;-4.18;65.90;95720.81;4970551;28;20179;-79
2022/03/05 05:59:34;;;;;;;14.77;8.27;;;;;;;-4.19;65.79;95719.16;4970278;28;20275;-79
2022/03/05 06:01:59;;;;;;;17.10;8.40;;;;;;;-4.20;65.93;95722.56;4921785;29;20185;-80
2022/03/05 06:04:24;;;;;;;12.27;7.50;;;;;;;-4.20;66.01;95723.41;4955725;29;20228;-79
2022/03/05 06:06:50;;;;;;;15.50;8.50;;;;;;;-4.11;65.35;95728.13;4954363;29;20181;-79
2022/03/05 06:09:16;;;;;;;12.30;7.37;;;;;;;-4.12;65.59;95731.56;4970557;28;20201;-78
2022/03/05 06:11:41;;;;;;;14.77;8.13;;;;;;;-4.11;66.00;95725.59;4938030;29;20185;-80
2022/03/05 06:14:06;;;;;;;12.30;7.33;;;;;;;-4.08;65.45;95725.47;4954018;29;20240;-79
2022/03/05 06:16:32;;;;;;;15.07;8.30;;;;;;;-3.99;65.65;95735.28;4969369;28;20188;-79
2022/03/05 06:18:57;;;;;;;12.23;7.43;;;;;;;-3.96;66.03;95736.91;4957276;28;20177;-79
2022/03/05 06:21:23;;;;;;;14.60;8.10;;;;;;;-3.85;64.86;95734.81;4956661;28;20188;-79
2022/03/05 06:23:48;;;;;;;13.83;7.90;;;;;;;-3.86;64.97;95732.31;4956416;28;20203;-80
2022/03/05 06:26:13;;;;;;;10.70;7.47;;;;;;;-3.84;64.89;95735.63;4956460;28;20180;-80
2022/03/05 06:28:39;;;;;;;13.40;7.43;;;;;;;-3.83;64.92;95734.75;4942078;28;20248;-79
2022/03/05 06:31:04;;;;;;;13.53;7.80;;;;;;;-3.79;64.63;95732.03;4958363;28;20179;-80
2022/03/05 06:33:29;;;;;;;12.33;6.93;;;;;;;-3.67;64.78;95747.69;4957589;28;20202;-78
2022/03/05 06:35:55;;;;;;;15.17;7.80;;;;;;;-3.63;64.26;95744.16;4956377;28;20180;-78
2022/03/05 06:38:21;;;;;;;12.60;8.40;;;;;;;-3.57;64.49;95749.00;4941851;28;20548;-80
2022/03/05 06:40:46;;;;;;;13.47;7.97;;;;;;;-3.48;64.71;95753.72;4959355;28;20217;-81
2022/03/05 06:43:12;;;;;;;15.23;8.87;;;;;;;-3.40;64.45;95751.72;4941950;28;20199;-81
2022/03/05 06:45:38;;;;;;;14.23;8.23;;;;;;;-3.38;64.29;95754.22;4943881;28;20188;-79
2022/03/05 06:48:04;;;;;;;14.97;8.67;;;;;;;-3.31;64.41;95759.00;4961870;28;20232;-80
2022/03/05 06:50:30;;;;;;;13.17;9.40;;;;;;;-3.27;64.60;95763.09;4963713;28;20592;-80
2022/03/05 06:52:55;;;;;;;14.17;8.83;;;;;;;-3.12;64.03;95766.72;4946315;28;20247;-80
2022/03/05 06:55:21;;;;;;;14.40;8.63;;;;;;;-3.07;63.99;95766.56;4945838;28;20627;-80
2022/03/05 06:57:46;;;;;;;16.63;8.83;;;;;;;-2.99;64.45;95767.09;4979942;28;20179;-80
2022/03/05 07:00:13;;;;;;;15.87;9.00;;;;;;;-2.94;63.32;95771.06;4946801;28;20208;-80
2022/03/05 07:02:39;;;;;;;15.33;9.10;;;;;;;-2.96;63.86;95775.41;4962327;28;20197;-80
2022/03/05 07:05:05;;;;;;;16.53;9.43;;;;;;;-2.93;64.33;95771.91;4962709;28;20183;-80
2022/03/05 07:07:30;;;;;;;16.97;9.87;;;;;;;-2.82;63.30;95772.31;4943899;28;20263;-82
2022/03/05 07:09:56;;;;;;;17.00;10.10;;;;;;;-2.79;63.84;95774.72;4961547;28;20169;-80
2022/03/05 07:12:21;;;;;;;17.30;10.07;;;;;;;-2.73;63.92;95771.97;4936606;28;20216;-80
2022/03/05 07:14:48;;;;;;;15.20;9.47;;;;;;;-2.55;63.43;95775.47;4977095;28;20169;-79
2022/03/05 07:17:15;;;;;;;18.57;10.20;;;;;;;-2.53;63.35;95772.84;4957160;29;20191;-80
2022/03/05 07:19:40;;;;;;;17.77;10.47;;;;;;;-2.51;63.06;95771.88;4958153;29;20236;-77
2022/03/05 07:22:06;;;;;;;20.00;11.30;;;;;;;-2.36;62.63;95767.91;4957450;29;20181;-78
2022/03/05 07:24:31;;;;;;;21.60;11.23;;;;;;;-2.29;63.29;95771.84;4958548;29;20664;-79
2022/03/05 07:26:56;;;;;;;18.17;10.90;;;;;;;-2.18;62.97;95773.91;4958261;29;20227;-78
2022/03/05 07:29:21;;;;;;;19.20;11.40;;;;;;;-2.14;62.85;95776.25;4958238;29;20165;-79
2022/03/05 07:31:47;;;;;;;20.77;11.87;;;;;;;-2.06;62.79;95776.75;4956910;29;20565;-78
2022/03/05 07:34:12;;;;;;;18.33;11.40;;;;;;;-2.02;63.15;95778.28;4957314;29;20204;-79
2022/03/05 07:36:37;;;;;;;21.67;12.43;;;;;;;-1.93;63.04;95781.34;4957583;29;20661;-79
2022/03/05 07:39:04;;;;;;;22.20;12.70;;;;;;;-1.88;62.71;95779.41;4925730;29;20601;-79
2022/03/05 07:41:29;;;;;;;20.77;11.70;;;;;;;-1.76;62.91;95783.97;4957201;29;20211;-79
2022/03/05 07:43:54;;;;;;;20.10;11.83;;;;;;;-1.74;62.74;95787.28;4925071;29;20209;-79
2022/03/05 07:46:19;;;;;;;21.00;12.57;;;;;;;-1.71;62.39;95787.94;4958060;28;20185;-79
2022/03/05 07:48:45;;;;;;;22.33;12.47;;;;;;;-1.63;62.39;95786.78;4961851;29;20236;-78
2022/03/05 07:51:10;;;;;;;22.33;12.17;;;;;;;-1.54;62.25;95786.38;4960212;29;20186;-78
2022/03/05 07:53:35;;;;;;;20.20;12.93;;;;;;;-1.59;61.51;95791.69;4961851;29;20677;-78
2022/03/05 07:56:01;;;;;;;21.50;12.67;;;;;;;-1.56;61.90;95791.53;4961200;29;20188;-78
2022/03/05 07:58:26;;;;;;;21.17;12.37;;;;;;;-1.49;61.97;95800.56;4962009;29;20182;-78
2022/03/05 08:00:51;;;;;;;19.50;11.97;;;;;;;-1.44;61.29;95798.63;4959887;29;20221;-78
2022/03/05 08:03:17;;;;;;;21.83;13.40;;;;;;;-1.34;61.84;95798.22;4957912;29;20209;-78
2022/03/05 08:05:43;;;;;;;21.77;13.00;;;;;;;-1.30;61.66;95804.84;4958902;29;20188;-79
2022/03/05 08:08:09;;;;;;;20.93;12.97;;;;;;;-1.26;61.91;95808.88;4957793;29;20260;-80
2022/03/05 08:10:35;;;;;;;21.67;12.23;;;;;;;-1.19;61.56;95800.06;4959305;29;20169;-79
2022/03/05 08:13:00;;;;;;;22.17;13.20;;;;;;;-1.11;61.12;95803.09;4958916;29;20207;-79
2022/03/05 08:15:25;;;;;;;23.60;13.30;;;;;;;-1.05;61.52;95810.47;4959124;29;20189;-80
2022/03/05 08:17:58;;;;;;;22.93;12.90;;;;;;;-1.02;61.01;95812.84;4958061;29;20260;-80
2022/03/05 08:20:25;;;;;;;22.47;13.03;;;;;;;-0.96;61.18;95806.66;4957818;29;20206;-80
2022/03/05 08:22:51;;;;;;;21.83;13.27;;;;;;;-0.89;61.14;95798.63;4958287;29;20200;-79
2022/03/05 08:25:17;;;;;;;21.00;13.03;;;;;;;-0.76;60.53;95798.06;4929792;29;20184;-78
2022/03/05 08:27:42;;;;;;;24.53;13.70;;;;;;;-0.71;59.94;95801.19;4944989;29;20313;-79
2022/03/05 08:30:08;;;;;;;23.83;13.80;;;;;;;-0.70;60.30;95803.69;4959632;29;20207;-78
2022/03/05 08:32:34;;;;;;;21.70;12.93;;;;;;;-0.65;60.17;95793.25;4926658;29;20217;-79
2022/03/05 08:35:00;;;;;;;23.73;13.33;;;;;;;-0.61;59.74;95798.16;4927564;29;20179;-79
2022/03/05 08:37:25;;;;;;;22.20;13.23;;;;;;;-0.52;60.03;95796.06;4960790;29;20234;-79
2022/03/05 08:39:50;;;;;;;20.47;12.77;;;;;;;-0.57;59.72;95798.81;4959518;29;20218;-77
2022/03/05 08:42:16;;;;;;;22.07;13.80;;;;;;;-0.43;60.15;95801.53;4960820;29;20705;-80
2022/03/05 08:44:41;;;;;;;23.37;14.00;;;;;;;-0.48;58.95;95806.03;4959106;29;20191;-84
2022/03/05 08:47:06;;;;;;;21.60;12.80;;;;;;;-0.40;58.39;95798.84;4959116;29;20295;-80
2022/03/05 08:49:32;;;;;;;21.03;13.87;;;;;;;-0.33;58.75;95795.09;4964444;29;20196;-80
2022/03/05 08:51:57;;;;;;;22.97;13.30;;;;;;;-0.29;59.32;95804.22;4964476;29;20195;-78
2022/03/05 08:54:25;;;;;;;20.47;13.00;;;;;;;-0.18;58.35;95801.13;4956673;29;20681;-79
2022/03/05 08:56:50;;;;;;;19.97;12.27;;;;;;;-0.12;57.91;95795.72;4955706;29;20332;-79
2022/03/05 08:59:16;;;;;;;18.20;11.73;;;;;;;-0.03;57.63;95802.94;4923490;29;20215;-78
2022/03/05 09:01:41;;;;;;;18.10;11.93;;;;;;;0.04;57.37;95798.34;4940790;29;20679;-78
2022/03/05 09:04:07;;;;;;;22.87;12.10;;;;;;;0.17;57.30;95808.75;4941161;29;20203;-79
2022/03/05 09:06:32;;;;;;;23.63;13.27;;;;;;;0.06;55.83;95813.59;4958979;29;20191;-79
2022/03/05 09:08:59;;;;;;;19.07;11.43;;;;;;;0.08;57.11;95797.28;4956991;29;20193;-79
2022/03/05 09:11:25;;;;;;;21.17;12.97;;;;;;;0.23;57.26;95796.50;4940471;29;20188;-79
2022/03/05 09:13:50;;;;;;;20.30;12.13;;;;;;;0.21;57.54;95803.41;4925281;29;20208;-80
2022/03/05 09:16:16;;;;;;;21.73;12.00;;;;;;;0.38;57.41;95791.50;4956793;29;20185;-79
2022/03/05 09:18:41;;;;;;;21.20;13.03;;;;;;;0.49;56.58;95799.44;4939437;29;20347;-78
2022/03/05 09:21:07;;;;;;;19.93;12.80;;;;;;;0.65;56.22;95795.16;4955799;29;20581;-78
2022/03/05 09:23:32;;;;;;;23.17;12.73;;;;;;;0.44;56.44;95796.28;4995340;23;20233;-79
2022/03/05 09:25:58;;;;;;;19.43;11.13;;;;;;;0.49;55.80;95804.53;4957694;29;20185;-79
2022/03/05 09:28:23;;;;;;;21.13;12.77;;;;;;;0.80;56.28;95794.34;4957551;29;20182;-80
2022/03/05 09:30:48;;;;;;;21.80;12.83;;;;;;;0.94;56.53;95793.59;4957194;29;20661;-78
2022/03/05 09:33:14;;;;;;;20.07;11.63;;;;;;;0.97;55.58;95793.44;4955645;29;20209;-78
2022/03/05 09:35:39;;;;;;;16.80;11.73;;;;;;;1.11;53.70;95802.91;4938510;29;20188;-78
2022/03/05 09:38:05;;;;;;;21.40;11.50;;;;;;;1.22;54.72;95798.03;4938683;29;20191;-80
2022/03/05 09:40:30;;;;;;;18.20;11.43;;;;;;;1.35;54.05;95799.00;4938732;29;20210;-78
2022/03/05 09:42:55;;;;;;;18.40;12.20;;;;;;;1.41;53.86;95798.66;4937362;29;20266;-77
2022/03/05 09:45:21;;;;;;;18.13;11.53;;;;;;;1.55;52.75;95791.94;4939076;29;20649;-78
2022/03/05 09:47:46;;;;;;;17.43;11.20;;;;;;;1.45;52.36;95783.13;4956092;29;20196;-78
2022/03/05 09:50:12;;;;;;;16.97;10.43;;;;;;;1.66;52.23;95792.13;4958510;29;20260;-79
2022/03/05 09:52:38;;;;;;;15.93;10.40;;;;;;;1.82;51.58;95782.66;4940088;29;20201;-79
2022/03/05 09:55:04;;;;;;;17.40;10.30;;;;;;;1.80;50.91;95794.75;4956414;29;20189;-80
2022/03/05 09:57:29;;;;;;;15.97;9.80;;;;;;;1.81;50.55;95785.31;4956971;29;20238;-78
2022/03/05 09:59:54;;;;;;;17.20;9.93;;;;;;;1.92;50.40;95798.31;4956611;29;20223;-80
2022/03/05 10:02:20;;;;;;;17.60;11.60;;;;;;;1.75;50.72;95780.56;4940325;29;20245;-77
2022/03/05 10:04:45;;;;;;;19.83;11.80;;;;;;;1.74;51.67;95787.41;4956640;29;20188;-79
2022/03/05 10:07:15;;;;;;;18.60;11.10;;;;;;;1.79;51.67;95780.31;4957566;29;20276;-78
2022/03/05 10:09:43;;;;;;;19.93;12.10;;;;;;;1.86;51.50;95789.28;4956751;28;20645;-78
2022/03/05 10:12:29;;;;;;;25.23;13.10;;;;;;;1.80;51.46;95781.13;4957235;29;20275;-80
2022/03/05 10:15:12;;;;;;;18.30;11.57;;;;;;;1.85;49.67;95782.47;4943139;29;20187;-79
2022/03/05 10:17:58;;;;;;;17.93;9.90;;;;;;;1.79;49.49;95782.84;4957968;29;20588;-79
2022/03/05 10:20:27;;;;;;;18.40;12.00;;;;;;;1.91;50.29;95786.44;4938153;29;20287;-80
2022/03/05 10:23:05;;;;;;;15.30;10.40;;;;;;;1.91;48.27;95782.13;4937157;29;20201;-78
2022/03/05 10:25:41;;;;;;;18.00;10.17;;;;;;;2.03;46.77;95787.44;4954504;29;20240;-78
2022/03/05 10:28:19;;;;;;;20.17;13.20;;;;;;;2.06;47.52;95788.09;4954667;29;20251;-79
2022/03/05 10:30:47;;;;;;;17.50;10.70;;;;;;;2.22;47.58;95791.41;4953431;29;20616;-79
2022/03/05 10:33:30;;;;;;;15.63;10.40;;;;;;;2.07;46.87;95786.38;4953318;29;20300;-78
2022/03/05 10:35:58;;;;;;;16.00;9.17;;;;;;;2.09;46.98;95787.91;4953989;29;20204;-78
2022/03/05 10:38:25;;;;;;;13.00;8.50;;;;;;;2.16;45.77;95780.69;4954139;29;20263;-79
2022/03/05 10:40:55;;;;;;;11.73;8.00;;;;;;;2.29;45.04;95779.03;4954606;29;20237;-80
2022/03/05 10:43:22;;;;;;;11.40;7.90;;;;;;;2.32;45.51;95781.44;4954963;29;20208;-80
2022/03/05 10:45:55;;;;;;;14.40;9.10;;;;;;;2.53;45.00;95785.25;4954203;29;20604;-79
2022/03/05 10:48:22;;;;;;;11.97;7.80;;;;;;;2.37;44.27;95784.53;4954112;29;20189;-80
2022/03/05 10:50:47;;;;;;;14.53;8.87;;;;;;;2.39;44.64;95782.72;4953672;28;20287;-78
2022/03/05 10:53:12;;;;;;;14.83;9.40;;;;;;;2.23;44.58;95776.88;4954870;29;20624;-78
2022/03/05 10:55:39;;;;;;;13.70;9.47;;;;;;;2.47;44.19;95780.53;4955979;29;20192;-78
2022/03/05 10:58:14;;;;;;;12.60;8.60;;;;;;;2.68;44.78;95769.88;4954310;29;20181;-78
2022/03/05 11:00:40;;;;;;;12.73;9.43;;;;;;;2.48;44.87;95777.03;4955779;28;20208;-79
2022/03/05 11:03:14;;;;;;;14.25;9.60;;;;;;;2.79;44.83;95775.97;4966195;23;20471;-81
2022/03/05 11:06:01;;;;;;;13.47;8.93;;;;;;;2.98;45.34;95785.09;4921340;29;20189;-80
2022/03/05 11:09:14;;;;;;;;;;;;;;;;;;;;;
2022/03/05 11:11:42;;;;;;;12.10;8.93;;;;;;;2.87;44.34;95772.94;4957587;29;20283;-82
2022/03/05 11:14:39;;;;;;;;;;;;;;;;;;;;;
2022/03/05 11:17:05;;;;;;;14.50;8.80;;;;;;;2.97;44.18;95765.50;4941597;29;20176;-81
2022/03/05 11:19:31;;;;;;;18.00;8.50;;;;;;;3.06;44.65;95762.34;4923211;29;20211;-80
2022/03/05 11:22:00;;;;;;;13.63;8.97;;;;;;;3.03;44.22;95760.81;4952566;28;20173;-82
2022/03/05 11:24:25;;;;;;;13.07;8.47;;;;;;;3.19;43.51;95754.72;4958224;29;20184;-79